Time;durP1;ratioP1;P1;durP2;ratioP2;P2;SDS_P1;SDS_P2;PMS_P1;PMS_P2;Temp;Humidity;BMP_temperature;BMP_pressure;BME280_temperature;BME280_humidity;BME280_pressure;Samples;Min_cycle;Max_cycle;Signal;HPM_P1;HPM_P2
2022/08/11 00:00:08;;;;;;;3.10;1.50;;;23.40;63.70;;;;;;5071590;28;20048;-63
2022/08/11 00:02:35;;;;;;;2.70;1.60;;;23.40;63.70;;;;;;5072468;28;20123;-63
2022/08/11 00:05:07;;;;;;;2.63;1.48;;;23.40;63.70;;;;;;5070721;28;20141;-63
2022/08/11 00:07:33;;;;;;;2.33;1.60;;;23.40;63.70;;;;;;5071403;28;20040;-63
2022/08/11 00:09:58;;;;;;;2.85;1.50;;;23.30;63.60;;;;;;5070510;28;20494;-63
2022/08/11 00:12:24;;;;;;;3.35;1.50;;;23.30;63.60;;;;;;5071184;28;20444;-63
2022/08/11 00:14:57;;;;;;;3.55;1.75;;;23.30;63.60;;;;;;5069971;28;20040;-63
2022/08/11 00:17:26;;;;;;;2.75;1.70;;;23.30;63.60;;;;;;5072264;28;20052;-63
2022/08/11 00:19:53;;;;;;;2.65;1.52;;;23.30;63.60;;;;;;5070961;28;20076;-63
2022/08/11 00:22:21;;;;;;;2.60;1.70;;;23.30;63.70;;;;;;5053259;28;20492;-63
2022/08/11 00:24:47;;;;;;;3.00;1.60;;;23.30;63.60;;;;;;5070673;28;20045;-63
2022/08/11 00:27:12;;;;;;;2.83;1.48;;;23.30;63.60;;;;;;5071199;28;20041;-63
2022/08/11 00:29:38;;;;;;;2.83;1.98;;;23.30;63.60;;;;;;5069964;28;20123;-63
2022/08/11 00:32:04;;;;;;;3.60;1.70;;;23.30;63.60;;;;;;5053830;28;20055;-63
2022/08/11 00:34:32;;;;;;;2.70;1.48;;;23.30;63.60;;;;;;5071088;28;20048;-64
2022/08/11 00:37:03;;;;;;;2.47;1.60;;;23.30;63.60;;;;;;5069878;28;20045;-63
2022/08/11 00:39:30;;;;;;;3.53;1.70;;;23.30;63.60;;;;;;5070792;28;20080;-63
2022/08/11 00:42:08;;;;;;;3.45;1.40;;;23.30;63.60;;;;;;5071172;28;20076;-63
2022/08/11 00:45:00;;;;;;;4.20;1.85;;;23.20;63.60;;;;;;5072160;28;20041;-63
2022/08/11 00:47:32;;;;;;;4.00;1.88;;;23.20;63.60;;;;;;5073487;28;20055;-63
2022/08/11 00:50:00;;;;;;;4.80;1.67;;;23.20;63.60;;;;;;5074529;28;20496;-63
2022/08/11 00:52:51;;;;;;;3.75;1.40;;;23.20;63.60;;;;;;5075696;28;20043;-63
2022/08/11 00:55:35;;;;;;;2.53;1.50;;;23.20;63.50;;;;;;5075547;28;20093;-63
2022/08/11 00:58:31;;;;;;;2.53;1.52;;;23.20;63.60;;;;;;5073327;28;20051;-63
2022/08/11 01:01:15;;;;;;;2.70;1.52;;;23.20;63.90;;;;;;5075147;28;20052;-63
2022/08/11 01:03:52;;;;;;;4.45;1.70;;;23.20;63.60;;;;;;5074476;28;20066;-63
2022/08/11 01:06:45;;;;;;;2.85;1.50;;;23.20;63.60;;;;;;5075509;28;20131;-63
2022/08/11 01:09:52;;;;;;;3.67;1.58;;;23.20;63.60;;;;;;5073695;28;20044;-63
2022/08/11 01:12:29;;;;;;;2.25;1.48;;;23.20;63.60;;;;;;5063356;28;20068;-63
2022/08/11 01:15:33;;;;;;;4.03;1.80;;;23.20;63.60;;;;;;5073926;28;20052;-63
2022/08/11 01:18:26;;;;;;;3.38;1.80;;;23.20;63.60;;;;;;5074352;28;20052;-63
2022/08/11 01:21:01;;;;;;;3.72;1.80;;;23.20;63.60;;;;;;5074637;28;20049;-63
2022/08/11 01:24:04;;;;;;;3.90;1.50;;;23.20;63.60;;;;;;5075125;28;20052;-63
2022/08/11 01:27:01;;;;;;;3.72;1.80;;;23.20;63.60;;;;;;5074819;28;20044;-63
2022/08/11 01:29:27;;;;;;;;;;;23.20;63.60;;;;;;5074006;28;20543;-63
2022/08/11 01:32:14;;;;;;;5.15;2.00;;;23.10;63.50;;;;;;5073517;28;19924;-63
2022/08/11 01:35:02;;;;;;;4.10;1.60;;;23.10;63.60;;;;;;5074927;28;20048;-63
2022/08/11 01:38:00;;;;;;;2.30;1.25;;;23.10;63.50;;;;;;5073573;28;20396;-63
2022/08/11 01:40:45;;;;;;;;;;;23.10;63.50;;;;;;5062088;28;20044;-63
2022/08/11 01:46:50;;;;;;;2.30;1.63;;;23.10;63.50;;;;;;5073233;28;20131;-63
2022/08/11 01:49:56;;;;;;;2.47;1.50;;;23.10;63.50;;;;;;5074622;28;20087;-63
2022/08/11 01:52:27;;;;;;;4.10;1.83;;;23.10;63.50;;;;;;5059806;28;20052;-63
2022/08/11 01:55:08;;;;;;;2.75;1.77;;;23.10;63.50;;;;;;5072787;28;20052;-63
2022/08/11 01:57:50;;;;;;;3.08;1.58;;;23.10;63.50;;;;;;5073107;28;20049;-63
2022/08/11 02:00:20;;;;;;;4.93;1.98;;;23.00;64.00;;;;;;5070774;28;20036;-63
2022/08/11 02:03:05;;;;;;;2.60;1.73;;;23.10;63.40;;;;;;5036755;28;20412;-63
2022/08/11 02:05:50;;;;;;;4.80;2.40;;;23.10;63.50;;;;;;5054242;28;20083;-63
2022/08/11 02:08:42;;;;;;;4.25;1.75;;;23.10;63.40;;;;;;5051189;28;20053;-63
2022/08/11 02:11:31;;;;;;;4.40;1.80;;;23.10;63.50;;;;;;5053008;28;20051;-63
2022/08/11 02:14:09;;;;;;;3.60;1.52;;;23.00;63.40;;;;;;5052045;28;20037;-63
2022/08/11 02:17:09;;;;;;;3.42;1.75;;;23.00;63.40;;;;;;5054283;28;20045;-63
2022/08/11 02:25:34;;;;;;;4.13;1.85;;;23.00;63.40;;;;;;5054012;28;20045;-63
2022/08/11 02:28:07;;;;;;;3.70;1.88;;;23.00;63.40;;;;;;5051677;28;20045;-63
2022/08/11 02:30:36;;;;;;;2.47;1.60;;;23.00;63.40;;;;;;5052460;28;20037;-63
2022/08/11 02:33:22;;;;;;;4.65;2.00;;;23.00;63.40;;;;;;5052000;28;20382;-63
2022/08/11 02:36:02;;;;;;;2.20;1.50;;;23.00;63.40;;;;;;5051329;28;20045;-63
2022/08/11 02:38:32;;;;;;;4.07;2.10;;;23.00;63.40;;;;;;5053614;28;20049;-63
2022/08/11 02:44:13;;;;;;;3.47;2.00;;;23.00;63.30;;;;;;5053264;28;20137;-63
2022/08/11 02:47:09;;;;;;;2.97;1.88;;;23.00;63.40;;;;;;5053153;28;20524;-63
2022/08/11 02:49:53;;;;;;;4.05;1.70;;;23.00;63.40;;;;;;5052872;28;20040;-63
2022/08/11 02:52:46;;;;;;;3.65;2.28;;;23.00;63.40;;;;;;5052274;28;20041;-63
2022/08/11 02:55:26;;;;;;;3.28;1.88;;;23.00;63.40;;;;;;5052256;28;20116;-63
2022/08/11 02:58:02;;;;;;;4.78;1.90;;;23.00;63.40;;;;;;5052463;28;20484;-63
2022/08/11 03:00:29;;;;;;;2.95;1.70;;;23.00;63.40;;;;;;5051947;28;20447;-63
2022/08/11 03:03:25;;;;;;;3.25;1.95;;;22.90;63.40;;;;;;5050981;28;20057;-63
2022/08/11 03:05:59;;;;;;;3.42;1.98;;;23.00;63.50;;;;;;5051538;28;20554;-63
2022/08/11 03:08:51;;;;;;;2.67;1.85;;;22.90;63.40;;;;;;5051963;28;20052;-63
2022/08/11 03:17:49;;;;;;;4.68;2.00;;;22.90;63.40;;;;;;5050770;28;20091;-63
2022/08/11 03:20:54;;;;;;;3.65;1.83;;;22.90;63.40;;;;;;5051982;28;20044;-63
2022/08/11 03:23:57;;;;;;;3.50;1.88;;;22.90;63.40;;;;;;5032701;28;20053;-63
2022/08/11 03:26:52;;;;;;;3.85;2.33;;;22.90;63.40;;;;;;5037693;28;20545;-63
2022/08/11 03:30:00;;;;;;;3.28;2.03;;;22.90;63.40;;;;;;5037717;28;20514;-63
2022/08/11 03:32:29;;;;;;;2.50;1.40;;;22.80;63.40;;;;;;5050602;28;20084;-63
2022/08/11 03:34:56;;;;;;;5.07;2.22;;;22.90;63.40;;;;;;5051304;28;20053;-63
2022/08/11 03:37:49;;;;;;;2.80;1.77;;;22.90;63.40;;;;;;5051729;28;20049;-63
2022/08/11 03:41:41;;;;;;;2.95;1.92;;;22.90;63.40;;;;;;5051460;28;20048;-63
2022/08/11 03:43:17;;;;;;;4.10;1.85;;;22.80;63.40;;;;;;5052222;28;20049;-63
2022/08/11 03:45:46;;;;;;;4.18;2.08;;;22.80;63.40;;;;;;5051577;28;20128;-63
2022/08/11 03:48:24;;;;;;;3.25;1.70;;;22.80;63.40;;;;;;5052336;28;20100;-63
2022/08/11 03:50:49;;;;;;;;;;;22.80;63.40;;;;;;5051256;28;20397;-63
2022/08/11 03:53:26;;;;;;;3.67;2.05;;;22.80;63.30;;;;;;5069849;28;20413;-63
2022/08/11 03:56:11;;;;;;;3.53;1.60;;;22.80;64.00;;;;;;5071223;28;20051;-63
2022/08/11 03:58:56;;;;;;;3.60;2.10;;;22.80;63.40;;;;;;5072473;28;20048;-63
2022/08/11 04:01:43;;;;;;;3.38;1.92;;;22.80;63.40;;;;;;5062666;28;20052;-63
2022/08/11 04:04:30;;;;;;;4.07;2.10;;;22.80;63.40;;;;;;5064093;28;20032;-63
2022/08/11 04:07:34;;;;;;;4.20;2.03;;;22.80;63.40;;;;;;5070444;28;20542;-63
2022/08/11 04:10:21;;;;;;;5.00;2.50;;;22.80;63.40;;;;;;5071636;28;20852;-63
2022/08/11 04:13:01;;;;;;;3.47;2.05;;;22.80;63.40;;;;;;5071933;28;20044;-63
2022/08/11 04:18:31;;;;;;;4.22;2.20;;;22.80;63.40;;;;;;5071366;28;20037;-63
2022/08/11 04:21:24;;;;;;;4.55;1.88;;;22.80;63.40;;;;;;5071501;28;20049;-63
2022/08/11 04:24:24;;;;;;;3.88;1.90;;;22.80;63.40;;;;;;5075533;28;20139;-63
2022/08/11 04:27:08;;;;;;;5.28;2.28;;;22.80;63.40;;;;;;5074487;28;20076;-63
2022/08/11 04:29:57;;;;;;;5.63;2.20;;;22.80;63.40;;;;;;5076175;28;20106;-63
2022/08/11 04:32:30;;;;;;;2.97;2.05;;;22.70;63.30;;;;;;5058823;28;20075;-63
2022/08/11 04:35:07;;;;;;;4.93;2.28;;;22.80;63.40;;;;;;5075051;28;20139;-63
2022/08/11 04:37:35;;;;;;;3.58;2.00;;;22.80;63.40;;;;;;5074543;28;20052;-63
2022/08/11 04:40:43;;;;;;;3.67;2.00;;;22.80;63.40;;;;;;5075598;28;20484;-63
2022/08/11 04:43:38;;;;;;;4.70;2.30;;;22.80;63.30;;;;;;5074000;28;20037;-63
2022/08/11 04:46:41;;;;;;;4.13;2.30;;;22.80;63.30;;;;;;5074452;28;20131;-63
2022/08/11 05:01:40;;;;;;;3.30;1.70;;;22.70;63.40;;;;;;5025335;28;20073;-63
2022/08/11 05:07:40;;;;;;;3.63;1.70;;;22.70;63.40;;;;;;5066565;28;20415;-63
2022/08/11 05:10:13;;;;;;;2.72;1.70;;;22.80;63.40;;;;;;5074273;28;20055;-63
2022/08/11 05:12:50;;;;;;;3.28;1.90;;;22.80;63.40;;;;;;5074290;28;20041;-63
2022/08/11 05:35:32;;;;;;;7.47;4.40;;;22.60;63.30;;;;;;5059959;28;20040;-61
2022/08/11 05:57:27;;;;;;;5.05;3.28;;;22.60;63.50;;;;;;5073453;28;20119;-61
2022/08/11 06:00:09;;;;;;;5.65;3.58;;;22.60;63.40;;;;;;5072312;28;20040;-62
2022/08/11 06:02:49;;;;;;;6.97;3.83;;;22.60;63.40;;;;;;5073981;28;20051;-62
2022/08/11 06:05:15;;;;;;;6.65;3.42;;;22.60;63.30;;;;;;5072494;28;20044;-62
2022/08/11 06:07:40;;;;;;;6.15;3.30;;;22.60;63.30;;;;;;5073112;28;20594;-61
2022/08/11 06:10:06;;;;;;;5.85;3.60;;;22.60;63.30;;;;;;5072351;28;20040;-62
2022/08/11 06:12:35;;;;;;;4.32;2.72;;;22.60;63.30;;;;;;5072062;28;20045;-61
2022/08/11 06:15:04;;;;;;;5.30;3.08;;;22.70;63.40;;;;;;5072776;28;20040;-62
2022/08/11 06:17:30;;;;;;;6.22;3.58;;;22.60;63.40;;;;;;5073855;28;20595;-62
2022/08/11 06:20:01;;;;;;;6.55;3.00;;;22.70;63.40;;;;;;5072021;28;20123;-63
2022/08/11 06:22:26;;;;;;;5.45;3.08;;;22.70;63.40;;;;;;5072938;28;20048;-61
2022/08/11 06:24:57;;;;;;;7.43;2.78;;;22.70;63.40;;;;;;5071679;28;20032;-63
2022/08/11 06:27:25;;;;;;;7.18;3.30;;;22.70;63.30;;;;;;5055670;28;20053;-63
2022/08/11 06:29:52;;;;;;;6.45;3.83;;;22.70;63.30;;;;;;5073707;28;20053;-63
2022/08/11 06:32:18;;;;;;;7.20;4.13;;;22.70;63.20;;;;;;5072271;28;20048;-63
2022/08/11 06:35:04;;;;;;;7.18;4.00;;;22.60;63.00;;;;;;5055100;28;20306;-63
2022/08/11 06:38:06;;;;;;;5.40;3.53;;;22.60;63.00;;;;;;5072370;28;20056;-63
2022/08/11 06:44:06;;;;;;;7.43;3.80;;;22.50;63.00;;;;;;5072699;28;20492;-62
2022/08/11 06:46:37;;;;;;;7.38;3.60;;;22.50;63.10;;;;;;5073585;28;20098;-61
2022/08/11 06:49:04;;;;;;;7.38;3.80;;;22.50;63.20;;;;;;5072583;28;20044;-63
2022/08/11 06:51:29;;;;;;;5.82;3.70;;;22.50;63.40;;;;;;5073612;28;20072;-63
2022/08/11 06:53:58;;;;;;;7.32;3.38;;;22.50;63.50;;;;;;5073065;28;20075;-59
2022/08/11 07:02:14;;;;;;;10.10;4.72;;;22.40;63.80;;;;;;5056998;28;20049;-60
2022/08/11 07:04:52;;;;;;;8.02;4.55;;;22.40;64.00;;;;;;5072332;28;20041;-59
2022/08/11 07:15:52;;;;;;;7.53;4.47;;;22.30;64.40;;;;;;5071288;28;20048;-60
2022/08/11 07:29:31;;;;;;;10.60;3.60;;;22.30;64.70;;;;;;5071775;28;20056;-60
2022/08/11 07:32:02;;;;;;;6.38;3.40;;;22.30;64.70;;;;;;5070884;28;20144;-60
2022/08/11 07:34:31;;;;;;;6.45;3.20;;;22.40;64.80;;;;;;5070227;28;20059;-60
2022/08/11 07:36:58;;;;;;;5.00;2.72;;;22.40;64.90;;;;;;5053807;28;20091;-61
2022/08/11 07:39:25;;;;;;;6.50;3.03;;;22.40;64.90;;;;;;5071173;28;20051;-60
2022/08/11 07:41:52;;;;;;;4.47;2.20;;;22.40;64.90;;;;;;5070917;28;20044;-60
2022/08/11 07:44:18;;;;;;;3.75;2.15;;;22.40;64.90;;;;;;5071709;28;20048;-60
2022/08/11 07:52:29;;;;;;;4.47;2.10;;;22.50;64.70;;;;;;5070766;28;20045;-60
2022/08/11 07:55:07;;;;;;;5.25;2.08;;;22.50;64.60;;;;;;5056723;28;20102;-59
2022/08/11 08:19:27;;;;;;;3.72;1.60;;;22.80;64.00;;;;;;5076889;28;20040;-60
2022/08/11 08:21:52;;;;;;;6.03;2.10;;;22.80;63.90;;;;;;5078596;28;20454;-60
2022/08/11 08:24:19;;;;;;;3.15;1.77;;;22.80;63.90;;;;;;5077721;28;20052;-60
2022/08/11 08:26:59;;;;;;;4.28;1.70;;;22.90;63.80;;;;;;5077945;28;20041;-60
2022/08/11 08:32:10;;;;;;;6.97;1.63;;;22.90;63.80;;;;;;5077359;28;20399;-60
2022/08/11 08:34:36;;;;;;;5.68;1.85;;;22.90;63.70;;;;;;5076140;28;20048;-60
2022/08/11 08:37:01;;;;;;;4.60;1.45;;;23.00;63.40;;;;;;5076432;28;20033;-60
2022/08/11 08:39:27;;;;;;;4.80;1.58;;;23.00;63.30;;;;;;5059697;28;20048;-60
2022/08/11 08:41:54;;;;;;;5.53;1.95;;;23.00;62.90;;;;;;5066967;28;20052;-60
2022/08/11 08:44:20;;;;;;;6.00;1.70;;;23.00;62.30;;;;;;5076347;28;20059;-60
2022/08/11 08:46:58;;;;;;;3.55;1.55;;;23.10;62.40;;;;;;5076597;28;20553;-60
2022/08/11 08:49:30;;;;;;;6.03;1.50;;;23.10;61.80;;;;;;5076837;28;20037;-63
2022/08/11 08:51:56;;;;;;;5.65;1.45;;;23.10;61.50;;;;;;5078303;28;20423;-63
2022/08/11 08:54:29;;;;;;;4.07;1.55;;;23.10;61.80;;;;;;5076919;28;20083;-63
2022/08/11 08:56:55;;;;;;;3.72;1.70;;;23.20;62.20;;;;;;5076986;28;20095;-63
2022/08/11 08:59:21;;;;;;;3.97;1.42;;;23.20;62.20;;;;;;5060813;28;20068;-64
2022/08/11 09:01:47;;;;;;;2.90;1.30;;;23.20;62.70;;;;;;5058760;28;20044;-63
2022/08/11 09:04:13;;;;;;;3.30;1.60;;;23.20;62.70;;;;;;5077510;28;20044;-67
2022/08/11 09:06:39;;;;;;;3.78;1.20;;;23.30;62.80;;;;;;5078743;28;20037;-64
2022/08/11 09:09:07;;;;;;;2.25;1.05;;;23.30;62.70;;;;;;5073061;28;20484;-64
2022/08/11 09:11:49;;;;;;;5.53;1.38;;;23.40;62.60;;;;;;5074267;28;20045;-64
2022/08/11 09:14:23;;;;;;;4.65;1.48;;;23.50;62.60;;;;;;5075529;28;20052;-63
2022/08/11 09:16:50;;;;;;;2.58;1.38;;;23.60;62.70;;;;;;5073365;28;20068;-63
2022/08/11 09:19:17;;;;;;;2.28;1.20;;;23.60;62.70;;;;;;5074166;28;20522;-63
2022/08/11 09:26:58;;;;;;;4.15;1.02;;;23.60;62.60;;;;;;5073898;28;20040;-63
2022/08/11 09:27:17;;;;;;;3.55;1.33;;;23.60;62.80;;;;;;5075425;28;20053;-62
2022/08/11 09:29:42;;;;;;;5.53;1.85;;;23.60;62.80;;;;;;5069062;28;20045;-62
2022/08/11 09:32:08;;;;;;;5.55;1.73;;;23.60;63.00;;;;;;5074353;28;20092;-62
2022/08/11 09:34:35;;;;;;;4.38;1.90;;;23.60;63.40;;;;;;5073002;28;20095;-62
2022/08/11 09:45:13;;;;;;;4.85;1.67;;;23.60;64.90;;;;;;5072541;28;20044;-63
2022/08/11 09:47:38;;;;;;;3.30;1.73;;;23.60;65.10;;;;;;5074696;28;20045;-63
2022/08/11 09:50:04;;;;;;;4.65;1.73;;;23.60;65.30;;;;;;5073121;28;20057;-63
2022/08/11 09:52:33;;;;;;;4.15;1.65;;;23.60;65.40;;;;;;5072463;28;20047;-62
2022/08/11 09:54:58;;;;;;;4.68;1.50;;;23.60;65.50;;;;;;5072573;28;20428;-62
2022/08/11 10:00:10;;;;;;;5.60;1.55;;;23.60;65.60;;;;;;5069143;28;20427;-64
2022/08/11 10:02:39;;;;;;;4.95;1.73;;;23.60;65.60;;;;;;5073743;28;20037;-66
2022/08/11 10:07:51;;;;;;;6.15;1.55;;;23.60;66.20;;;;;;5070113;28;20480;-61
2022/08/11 10:10:21;;;;;;;4.47;1.60;;;23.60;66.20;;;;;;5052710;28;20090;-63
2022/08/11 10:12:48;;;;;;;4.03;1.55;;;23.60;66.40;;;;;;5060927;28;20087;-64
2022/08/11 10:15:37;;;;;;;5.13;1.93;;;23.60;66.30;;;;;;5069369;28;20049;-64
2022/08/11 10:21:21;;;;;;;5.18;1.80;;;23.60;66.00;;;;;;5072527;28;20513;-64
2022/08/11 10:34:43;;;;;;;7.80;2.20;;;23.70;65.60;;;;;;5071619;28;20049;-62
2022/08/11 10:37:08;;;;;;;6.50;2.53;;;23.70;65.70;;;;;;5072518;28;20052;-63
2022/08/11 10:39:34;;;;;;;6.03;2.22;;;23.70;65.60;;;;;;5055322;28;20203;-63
2022/08/11 10:44:46;;;;;;;5.78;2.20;;;23.70;65.30;;;;;;5057082;28;20044;-63
2022/08/11 11:00:55;;;;;;;4.35;2.20;;;23.80;65.10;;;;;;5066176;28;20036;-63
2022/08/11 11:03:24;;;;;;;5.70;1.88;;;23.70;65.00;;;;;;5067284;28;20041;-62
2022/08/11 11:05:50;;;;;;;4.57;1.63;;;23.80;64.90;;;;;;5070461;28;20468;-62
2022/08/11 11:10:59;;;;;;;6.68;2.05;;;23.80;64.90;;;;;;5063342;28;20072;-62
2022/08/11 11:19:10;;;;;;;7.80;2.28;;;23.80;64.70;;;;;;5040016;28;20397;-62
2022/08/11 11:21:36;;;;;;;4.25;1.92;;;23.80;64.60;;;;;;5064566;28;20511;-62
2022/08/11 11:24:36;;;;;;;8.40;2.10;;;23.80;64.50;;;;;;5070704;28;20033;-62
2022/08/11 11:27:11;;;;;;;3.70;1.80;;;23.80;64.40;;;;;;5071668;28;20043;-62
2022/08/11 11:29:39;;;;;;;3.72;1.77;;;23.80;64.40;;;;;;5071689;28;20048;-62
2022/08/11 11:32:10;;;;;;;4.53;1.75;;;23.80;64.30;;;;;;5068524;28;20051;-62
2022/08/11 11:35:00;;;;;;;4.80;1.70;;;23.90;64.30;;;;;;5072486;28;20094;-62
2022/08/11 11:37:26;;;;;;;3.72;1.83;;;23.90;64.20;;;;;;5067980;28;20041;-63
2022/08/11 11:39:53;;;;;;;4.15;1.70;;;23.90;64.30;;;;;;5053635;28;20047;-63
2022/08/11 11:42:18;;;;;;;4.25;1.58;;;23.90;64.20;;;;;;5071112;28;20098;-64
2022/08/11 11:44:44;;;;;;;6.20;1.90;;;23.90;64.10;;;;;;5069873;28;20036;-64
2022/08/11 11:47:11;;;;;;;4.00;1.70;;;23.90;64.10;;;;;;5069726;28;20114;-63
2022/08/11 11:49:39;;;;;;;2.90;1.73;;;23.90;64.10;;;;;;5071080;28;20044;-63
2022/08/11 11:52:06;;;;;;;2.25;1.48;;;23.90;64.10;;;;;;5070285;28;20135;-63
2022/08/11 11:54:35;;;;;;;3.70;1.52;;;23.90;64.00;;;;;;5071101;28;20460;-64
2022/08/11 12:01:14;;;;;;;3.63;1.67;;;23.90;64.00;;;;;;5071116;28;20056;-63
2022/08/11 12:02:34;;;;;;;4.93;1.90;;;23.90;63.80;;;;;;5072284;28;20512;-63
2022/08/11 12:05:00;;;;;;;4.38;1.70;;;23.90;63.80;;;;;;5071473;28;20309;-63
2022/08/11 12:10:11;;;;;;;5.15;2.05;;;24.00;63.70;;;;;;5071019;28;20555;-63
2022/08/11 12:15:21;;;;;;;4.60;1.52;;;24.00;63.60;;;;;;5071258;28;20092;-63
2022/08/11 12:17:46;;;;;;;4.38;1.60;;;24.00;63.50;;;;;;5072023;28;20068;-63
2022/08/11 12:20:15;;;;;;;3.17;1.50;;;24.00;63.40;;;;;;5070370;28;20511;-63
2022/08/11 12:28:09;;;;;;;4.00;1.83;;;24.00;63.20;;;;;;5070754;28;20454;-63
2022/08/11 12:30:34;;;;;;;4.85;1.35;;;24.00;63.20;;;;;;5071817;28;20045;-64
2022/08/11 12:33:00;;;;;;;2.65;1.38;;;24.00;63.20;;;;;;5053153;28;20041;-63
2022/08/11 12:35:25;;;;;;;2.72;1.35;;;24.00;63.10;;;;;;5071076;28;20048;-64
2022/08/11 12:37:54;;;;;;;2.97;1.30;;;24.00;63.00;;;;;;5071795;28;20078;-64
2022/08/11 12:45:57;;;;;;;3.58;1.52;;;24.00;62.90;;;;;;5074360;28;20044;-63
2022/08/11 12:54:17;;;;;;;2.25;1.25;;;24.00;62.80;;;;;;5074595;28;20056;-64
2022/08/11 13:05:03;;;;;;;2.85;1.27;;;24.10;62.70;;;;;;5075286;28;20044;-64
2022/08/11 13:07:29;;;;;;;3.42;1.40;;;24.10;62.70;;;;;;5074723;28;20105;-64
2022/08/11 13:09:55;;;;;;;3.90;1.40;;;24.10;62.60;;;;;;5056810;28;20044;-64
2022/08/11 13:15:10;;;;;;;2.85;1.17;;;24.10;62.50;;;;;;5073567;28;20044;-64
2022/08/11 13:17:35;;;;;;;3.78;1.30;;;24.10;62.50;;;;;;5074089;28;20048;-65
2022/08/11 13:20:01;;;;;;;4.25;1.20;;;24.20;62.50;;;;;;5073656;28;20499;-64
2022/08/11 13:22:27;;;;;;;2.78;1.08;;;24.20;62.40;;;;;;5073300;28;20040;-64
2022/08/11 13:24:54;;;;;;;4.13;1.70;;;24.20;62.40;;;;;;5073615;28;20036;-64
2022/08/11 13:27:19;;;;;;;2.00;1.10;;;24.20;62.30;;;;;;5073884;28;20055;-64
2022/08/11 13:29:45;;;;;;;2.33;1.30;;;24.20;62.30;;;;;;5072687;28;20040;-64
2022/08/11 13:32:11;;;;;;;2.70;1.20;;;24.20;62.30;;;;;;5073356;28;20458;-63
2022/08/11 13:34:40;;;;;;;4.10;1.15;;;24.30;62.30;;;;;;5073769;28;20079;-64
2022/08/11 13:37:06;;;;;;;2.47;1.02;;;24.30;62.20;;;;;;5072499;28;20492;-64
2022/08/11 13:39:31;;;;;;;3.20;1.23;;;24.30;62.20;;;;;;5056828;28;20102;-63
2022/08/11 13:41:58;;;;;;;2.10;0.93;;;24.30;62.20;;;;;;5072752;28;20044;-63
2022/08/11 13:44:28;;;;;;;2.58;1.20;;;24.30;62.00;;;;;;5072420;28;20060;-63
2022/08/11 13:46:56;;;;;;;3.80;1.42;;;24.40;61.80;;;;;;5072734;28;20036;-62
2022/08/11 13:49:22;;;;;;;3.47;1.27;;;24.40;61.80;;;;;;5074299;28;20044;-62
2022/08/11 13:51:47;;;;;;;4.13;1.48;;;24.40;61.80;;;;;;5055399;28;20029;-63
2022/08/11 13:54:19;;;;;;;1.90;1.08;;;24.50;61.80;;;;;;5071634;28;20522;-63
2022/08/11 13:56:53;;;;;;;3.13;1.55;;;24.50;61.80;;;;;;5071935;28;20041;-63
2022/08/11 13:59:21;;;;;;;2.38;1.50;;;24.50;61.90;;;;;;5054017;28;20044;-62
2022/08/11 14:01:48;;;;;;;4.28;1.70;;;24.50;61.80;;;;;;5072567;28;20110;-63
2022/08/11 14:04:15;;;;;;;3.08;1.95;;;24.60;61.80;;;;;;5071961;28;20094;-63
2022/08/11 14:06:49;;;;;;;2.95;1.50;;;24.60;61.60;;;;;;5073593;28;20107;-63
2022/08/11 14:09:15;;;;;;;3.63;1.98;;;24.60;61.60;;;;;;5072586;28;20044;-64
2022/08/11 14:14:26;;;;;;;4.25;2.20;;;24.70;61.40;;;;;;5073238;28;20049;-61
2022/08/11 14:16:53;;;;;;;3.65;1.67;;;24.70;61.30;;;;;;5072795;28;20075;-61
2022/08/11 14:19:20;;;;;;;3.20;2.20;;;24.80;61.20;;;;;;5055086;28;20097;-59
2022/08/11 14:24:29;;;;;;;3.88;1.95;;;24.80;61.10;;;;;;5072504;28;20044;-61
2022/08/11 14:26:55;;;;;;;4.80;2.65;;;24.80;61.00;;;;;;5054735;28;20086;-61
2022/08/11 14:29:21;;;;;;;3.00;2.22;;;24.80;60.90;;;;;;5072392;28;20037;-62
2022/08/11 14:31:52;;;;;;;3.33;1.90;;;24.90;61.00;;;;;;5071345;28;20045;-61
2022/08/11 14:34:23;;;;;;;3.63;2.20;;;24.90;60.90;;;;;;5053572;28;20487;-61
2022/08/11 14:36:51;;;;;;;5.25;2.22;;;25.00;60.90;;;;;;5055671;28;20045;-61
2022/08/11 14:39:17;;;;;;;;;;;25.00;60.80;;;;;;5072202;28;20102;-61
2022/08/11 14:47:19;;;;;;;6.18;2.25;;;25.10;60.70;;;;;;5050370;28;20049;-61
2022/08/11 14:49:45;;;;;;;2.72;2.00;;;25.00;60.60;;;;;;5054924;28;20041;-60
2022/08/11 14:52:14;;;;;;;4.30;2.42;;;25.10;60.00;;;;;;5065533;28;20048;-60
2022/08/11 14:57:27;;;;;;;3.80;2.70;;;25.10;58.90;;;;;;5070774;28;20119;-61
2022/08/11 14:59:52;;;;;;;4.25;2.75;;;25.20;59.00;;;;;;5072368;28;20116;-61
2022/08/11 15:05:03;;;;;;;5.88;3.05;;;25.20;58.80;;;;;;5069540;28;20088;-61
2022/08/11 15:07:30;;;;;;;3.85;3.05;;;25.20;59.00;;;;;;5060836;28;20104;-61
2022/08/11 15:09:57;;;;;;;3.47;2.65;;;25.20;58.70;;;;;;5061246;28;20037;-61
2022/08/11 15:12:22;;;;;;;4.30;2.85;;;25.30;58.80;;;;;;5065513;28;20041;-61
2022/08/11 15:17:33;;;;;;;3.83;2.85;;;25.40;58.50;;;;;;5070955;28;20127;-61
2022/08/11 15:25:33;;;;;;;14.70;3.85;;;25.40;58.10;;;;;;5071260;28;20041;-61
2022/08/11 15:38:59;;;;;;;7.93;3.75;;;25.60;59.00;;;;;;5057228;28;20499;-61
2022/08/11 15:47:02;;;;;;;7.20;3.45;;;25.60;58.30;;;;;;5072110;28;20048;-61
2022/08/11 15:49:30;;;;;;;5.72;3.60;;;25.50;58.10;;;;;;5070854;28;20041;-61
2022/08/11 15:52:02;;;;;;;11.48;4.45;;;25.50;58.00;;;;;;5037470;28;20086;-61
2022/08/11 15:54:29;;;;;;;12.18;5.53;;;25.50;58.20;;;;;;5069077;28;20033;-61
2022/08/11 15:56:57;;;;;;;11.68;5.30;;;25.40;58.40;;;;;;5061825;28;20037;-62
2022/08/11 16:04:45;;;;;;;13.27;5.15;;;25.30;58.70;;;;;;5062694;28;20136;-62
2022/08/11 16:07:13;;;;;;;13.20;4.85;;;25.30;58.60;;;;;;5062892;28;20499;-62
2022/08/11 16:10:01;;;;;;;11.27;4.78;;;25.20;58.60;;;;;;5060801;28;20516;-62
2022/08/11 16:12:34;;;;;;;12.15;5.03;;;25.20;58.90;;;;;;5065460;28;20041;-62
2022/08/11 16:17:49;;;;;;;11.55;4.65;;;25.20;59.10;;;;;;5059055;28;20080;-63
2022/08/11 16:20:16;;;;;;;9.98;4.70;;;25.20;59.10;;;;;;5066727;28;20492;-63
2022/08/11 16:22:43;;;;;;;11.20;4.65;;;25.20;59.40;;;;;;5063324;28;20041;-62
2022/08/11 16:25:14;;;;;;;9.93;4.35;;;25.20;59.40;;;;;;5059675;28;20056;-62
2022/08/11 16:27:45;;;;;;;8.88;4.40;;;25.10;59.40;;;;;;5063463;28;20048;-62
2022/08/11 16:30:13;;;;;;;10.55;4.45;;;25.10;59.50;;;;;;5060965;28;20110;-63
2022/08/11 16:32:40;;;;;;;9.35;4.20;;;25.10;59.60;;;;;;5064294;28;20053;-62
2022/08/11 16:40:46;;;;;;;9.77;4.25;;;25.10;59.90;;;;;;5061140;28;20481;-62
2022/08/11 16:46:58;;;;;;;9.50;3.85;;;25.00;59.80;;;;;;5056364;28;20044;-62
2022/08/11 16:49:04;;;;;;;8.65;3.83;;;25.00;59.90;;;;;;5064711;28;20401;-62
2022/08/11 16:51:30;;;;;;;7.90;3.42;;;25.00;59.90;;;;;;5045562;28;20049;-62
2022/08/11 16:53:55;;;;;;;9.32;3.95;;;25.10;60.00;;;;;;5058967;28;20447;-62
2022/08/11 16:56:24;;;;;;;10.77;4.25;;;25.10;60.00;;;;;;5063619;28;20032;-61
2022/08/11 16:59:13;;;;;;;7.22;3.83;;;25.10;60.00;;;;;;5061264;28;20045;-62
2022/08/11 17:01:51;;;;;;;7.00;3.45;;;25.10;60.00;;;;;;5070262;28;20045;-61
2022/08/11 17:18:38;;;;;;;7.90;4.18;;;25.00;60.10;;;;;;5063153;28;20041;-62
2022/08/11 17:21:02;;;;;;;8.77;3.95;;;25.00;60.10;;;;;;5057813;28;20045;-62
2022/08/11 17:23:46;;;;;;;6.15;3.67;;;25.00;60.20;;;;;;5060780;28;20048;-62
2022/08/11 17:26:20;;;;;;;7.90;3.55;;;25.00;60.20;;;;;;5063551;28;20124;-60
2022/08/11 17:28:50;;;;;;;8.48;3.65;;;25.00;60.40;;;;;;5058442;28;20044;-61
2022/08/11 17:36:43;;;;;;;7.15;3.58;;;24.90;60.30;;;;;;5049755;28;20065;-62
2022/08/11 17:39:10;;;;;;;6.63;3.70;;;24.90;60.50;;;;;;5061616;28;20143;-61
2022/08/11 17:49:49;;;;;;;8.00;3.67;;;25.00;60.70;;;;;;5059095;28;20535;-61
2022/08/11 18:00:27;;;;;;;6.28;3.03;;;24.90;60.60;;;;;;5060671;28;20079;-61
2022/08/11 18:05:37;;;;;;;7.05;3.22;;;24.90;60.70;;;;;;5063660;28;20053;-61
